sensor_id;sensor_type;location;lat;lon;timestamp;temperature;humidity
13440;DHT22;6792;57.698;11.946;2022-12-11T00:01:37;3.50;48.80
13440;DHT22;6792;57.698;11.946;2022-12-11T00:04:06;3.50;48.70
13440;DHT22;6792;57.698;11.946;2022-12-11T00:06:36;3.50;48.70
13440;DHT22;6792;57.698;11.946;2022-12-11T00:09:05;3.40;48.10
13440;DHT22;6792;57.698;11.946;2022-12-11T00:11:34;3.50;48.60
13440;DHT22;6792;57.698;11.946;2022-12-11T00:14:04;3.40;48.60
13440;DHT22;6792;57.698;11.946;2022-12-11T00:16:36;3.40;48.60
13440;DHT22;6792;57.698;11.946;2022-12-11T00:19:06;3.40;48.50
13440;DHT22;6792;57.698;11.946;2022-12-11T00:21:35;3.30;48.50
13440;DHT22;6792;57.698;11.946;2022-12-11T00:24:06;3.30;48.50
13440;DHT22;6792;57.698;11.946;2022-12-11T00:26:36;3.30;48.60
13440;DHT22;6792;57.698;11.946;2022-12-11T00:29:05;3.20;48.60
13440;DHT22;6792;57.698;11.946;2022-12-11T00:31:37;3.20;48.10
13440;DHT22;6792;57.698;11.946;2022-12-11T00:34:06;3.20;48.10
13440;DHT22;6792;57.698;11.946;2022-12-11T00:36:35;3.20;48.70
13440;DHT22;6792;57.698;11.946;2022-12-11T00:39:05;3.20;48.70
13440;DHT22;6792;57.698;11.946;2022-12-11T00:41:34;3.20;48.70
13440;DHT22;6792;57.698;11.946;2022-12-11T00:44:04;3.30;48.70
13440;DHT22;6792;57.698;11.946;2022-12-11T00:46:33;3.30;48.70
13440;DHT22;6792;57.698;11.946;2022-12-11T00:49:04;3.30;48.70
13440;DHT22;6792;57.698;11.946;2022-12-11T00:51:33;3.30;48.80
13440;DHT22;6792;57.698;11.946;2022-12-11T00:54:03;3.30;48.80
13440;DHT22;6792;57.698;11.946;2022-12-11T00:56:33;3.30;48.70
13440;DHT22;6792;57.698;11.946;2022-12-11T00:59:03;3.40;48.70
13440;DHT22;6792;57.698;11.946;2022-12-11T01:01:34;3.30;48.70
13440;DHT22;6792;57.698;11.946;2022-12-11T01:04:06;3.30;48.80
13440;DHT22;6792;57.698;11.946;2022-12-11T01:06:35;3.30;48.80
13440;DHT22;6792;57.698;11.946;2022-12-11T01:09:05;3.30;48.80
13440;DHT22;6792;57.698;11.946;2022-12-11T01:11:52;3.30;48.40
13440;DHT22;6792;57.698;11.946;2022-12-11T01:14:21;3.30;49.00
13440;DHT22;6792;57.698;11.946;2022-12-11T01:16:50;3.30;49.10
13440;DHT22;6792;57.698;11.946;2022-12-11T01:19:19;3.30;49.00
13440;DHT22;6792;57.698;11.946;2022-12-11T01:21:48;3.30;49.00
13440;DHT22;6792;57.698;11.946;2022-12-11T01:24:18;3.30;48.80
13440;DHT22;6792;57.698;11.946;2022-12-11T01:26:47;3.20;48.30
13440;DHT22;6792;57.698;11.946;2022-12-11T01:29:16;3.30;49.00
13440;DHT22;6792;57.698;11.946;2022-12-11T01:31:45;3.30;49.00
13440;DHT22;6792;57.698;11.946;2022-12-11T01:34:14;3.30;49.10
13440;DHT22;6792;57.698;11.946;2022-12-11T01:36:44;3.30;49.00
13440;DHT22;6792;57.698;11.946;2022-12-11T01:39:13;3.30;49.10
13440;DHT22;6792;57.698;11.946;2022-12-11T01:41:42;3.30;49.20
13440;DHT22;6792;57.698;11.946;2022-12-11T01:47:16;3.40;48.60
13440;DHT22;6792;57.698;11.946;2022-12-11T01:49:46;3.40;49.30
13440;DHT22;6792;57.698;11.946;2022-12-11T01:52:17;3.40;49.30
13440;DHT22;6792;57.698;11.946;2022-12-11T01:54:48;3.30;49.20
13440;DHT22;6792;57.698;11.946;2022-12-11T01:57:21;3.40;49.30
13440;DHT22;6792;57.698;11.946;2022-12-11T01:59:50;3.40;49.30
13440;DHT22;6792;57.698;11.946;2022-12-11T02:02:22;3.40;49.30
13440;DHT22;6792;57.698;11.946;2022-12-11T02:04:52;3.60;48.80
13440;DHT22;6792;57.698;11.946;2022-12-11T02:07:21;3.40;48.80
13440;DHT22;6792;57.698;11.946;2022-12-11T02:09:51;3.50;49.30
13440;DHT22;6792;57.698;11.946;2022-12-11T02:12:23;3.50;49.30
13440;DHT22;6792;57.698;11.946;2022-12-11T02:14:57;3.60;49.30
13440;DHT22;6792;57.698;11.946;2022-12-11T02:17:28;3.60;49.20
13440;DHT22;6792;57.698;11.946;2022-12-11T02:20:02;3.50;49.20
13440;DHT22;6792;57.698;11.946;2022-12-11T02:22:43;3.50;49.20
13440;DHT22;6792;57.698;11.946;2022-12-11T02:25:14;3.50;49.20
13440;DHT22;6792;57.698;11.946;2022-12-11T02:27:46;3.50;49.20
13440;DHT22;6792;57.698;11.946;2022-12-11T02:30:16;3.50;49.20
13440;DHT22;6792;57.698;11.946;2022-12-11T02:32:48;3.50;49.20
13440;DHT22;6792;57.698;11.946;2022-12-11T02:35:20;3.50;49.80
13440;DHT22;6792;57.698;11.946;2022-12-11T02:40:35;3.50;48.70
13440;DHT22;6792;57.698;11.946;2022-12-11T02:43:07;3.50;49.30
13440;DHT22;6792;57.698;11.946;2022-12-11T02:45:39;3.50;49.30
13440;DHT22;6792;57.698;11.946;2022-12-11T02:48:10;3.50;49.20
13440;DHT22;6792;57.698;11.946;2022-12-11T02:50:42;3.50;49.20
13440;DHT22;6792;57.698;11.946;2022-12-11T02:53:15;3.50;49.20
13440;DHT22;6792;57.698;11.946;2022-12-11T02:55:48;3.50;48.70
13440;DHT22;6792;57.698;11.946;2022-12-11T02:58:20;3.50;49.30
13440;DHT22;6792;57.698;11.946;2022-12-11T03:00:50;3.40;49.30
13440;DHT22;6792;57.698;11.946;2022-12-11T03:03:20;3.50;49.20
13440;DHT22;6792;57.698;11.946;2022-12-11T03:05:49;3.50;49.30
13440;DHT22;6792;57.698;11.946;2022-12-11T03:08:18;3.50;49.50
13440;DHT22;6792;57.698;11.946;2022-12-11T03:10:48;3.50;49.30
13440;DHT22;6792;57.698;11.946;2022-12-11T03:13:19;3.50;49.30
13440;DHT22;6792;57.698;11.946;2022-12-11T03:15:54;3.50;49.20
13440;DHT22;6792;57.698;11.946;2022-12-11T03:18:26;3.50;49.20
13440;DHT22;6792;57.698;11.946;2022-12-11T03:20:59;3.40;49.30
13440;DHT22;6792;57.698;11.946;2022-12-11T03:23:31;3.40;49.40
13440;DHT22;6792;57.698;11.946;2022-12-11T03:26:03;3.40;49.30
13440;DHT22;6792;57.698;11.946;2022-12-11T03:28:39;3.40;49.30
13440;DHT22;6792;57.698;11.946;2022-12-11T03:31:11;3.40;48.80
13440;DHT22;6792;57.698;11.946;2022-12-11T03:33:42;3.40;49.50
13440;DHT22;6792;57.698;11.946;2022-12-11T03:36:15;3.50;49.60
13440;DHT22;6792;57.698;11.946;2022-12-11T03:38:47;3.50;49.60
13440;DHT22;6792;57.698;11.946;2022-12-11T03:41:19;3.50;49.60
13440;DHT22;6792;57.698;11.946;2022-12-11T03:43:51;3.50;49.50
13440;DHT22;6792;57.698;11.946;2022-12-11T03:46:23;3.50;49.50
13440;DHT22;6792;57.698;11.946;2022-12-11T03:48:55;3.60;49.50
13440;DHT22;6792;57.698;11.946;2022-12-11T03:51:26;3.60;49.50
13440;DHT22;6792;57.698;11.946;2022-12-11T03:53:57;3.60;49.00
13440;DHT22;6792;57.698;11.946;2022-12-11T03:56:29;3.60;49.50
13440;DHT22;6792;57.698;11.946;2022-12-11T03:58:59;3.60;49.50
13440;DHT22;6792;57.698;11.946;2022-12-11T04:01:28;3.60;49.50
13440;DHT22;6792;57.698;11.946;2022-12-11T04:03:57;3.60;49.60
13440;DHT22;6792;57.698;11.946;2022-12-11T04:06:27;3.60;49.50
13440;DHT22;6792;57.698;11.946;2022-12-11T04:08:56;3.70;49.60
13440;DHT22;6792;57.698;11.946;2022-12-11T04:11:25;3.70;49.50
13440;DHT22;6792;57.698;11.946;2022-12-11T04:14:05;3.70;49.50
13440;DHT22;6792;57.698;11.946;2022-12-11T04:16:52;3.70;49.50
13440;DHT22;6792;57.698;11.946;2022-12-11T04:19:22;3.70;49.40
13440;DHT22;6792;57.698;11.946;2022-12-11T04:22:11;3.70;48.90
13440;DHT22;6792;57.698;11.946;2022-12-11T04:24:58;3.70;49.00
13440;DHT22;6792;57.698;11.946;2022-12-11T04:27:27;3.70;49.70
13440;DHT22;6792;57.698;11.946;2022-12-11T04:30:18;3.60;49.00
13440;DHT22;6792;57.698;11.946;2022-12-11T04:32:47;3.60;49.10
13440;DHT22;6792;57.698;11.946;2022-12-11T04:35:16;3.60;49.70
13440;DHT22;6792;57.698;11.946;2022-12-11T04:37:46;3.70;49.70
13440;DHT22;6792;57.698;11.946;2022-12-11T04:40:17;3.70;49.60
13440;DHT22;6792;57.698;11.946;2022-12-11T04:42:47;3.80;49.60
13440;DHT22;6792;57.698;11.946;2022-12-11T04:45:16;3.80;49.60
13440;DHT22;6792;57.698;11.946;2022-12-11T04:47:46;3.80;49.60
13440;DHT22;6792;57.698;11.946;2022-12-11T04:50:15;3.80;49.60
13440;DHT22;6792;57.698;11.946;2022-12-11T04:52:44;3.80;49.00
13440;DHT22;6792;57.698;11.946;2022-12-11T04:55:14;3.70;49.50
13440;DHT22;6792;57.698;11.946;2022-12-11T04:57:43;3.70;49.50
13440;DHT22;6792;57.698;11.946;2022-12-11T05:00:14;3.70;49.50
13440;DHT22;6792;57.698;11.946;2022-12-11T05:02:44;3.60;49.50
13440;DHT22;6792;57.698;11.946;2022-12-11T05:05:13;3.70;49.60
13440;DHT22;6792;57.698;11.946;2022-12-11T05:07:42;3.70;49.60
13440;DHT22;6792;57.698;11.946;2022-12-11T05:10:11;3.60;49.00
13440;DHT22;6792;57.698;11.946;2022-12-11T05:12:40;3.70;49.60
13440;DHT22;6792;57.698;11.946;2022-12-11T05:15:10;3.70;49.00
13440;DHT22;6792;57.698;11.946;2022-12-11T05:17:39;3.70;49.40
13440;DHT22;6792;57.698;11.946;2022-12-11T05:20:10;3.60;49.40
13440;DHT22;6792;57.698;11.946;2022-12-11T05:22:39;3.60;49.50
13440;DHT22;6792;57.698;11.946;2022-12-11T05:25:09;3.60;48.90
13440;DHT22;6792;57.698;11.946;2022-12-11T05:27:38;3.70;49.60
13440;DHT22;6792;57.698;11.946;2022-12-11T05:30:10;3.70;49.60
13440;DHT22;6792;57.698;11.946;2022-12-11T05:32:39;3.70;49.50
13440;DHT22;6792;57.698;11.946;2022-12-11T05:35:08;3.70;49.50
13440;DHT22;6792;57.698;11.946;2022-12-11T05:37:37;3.70;49.50
13440;DHT22;6792;57.698;11.946;2022-12-11T05:40:10;3.70;49.50
13440;DHT22;6792;57.698;11.946;2022-12-11T05:42:40;3.70;49.50
13440;DHT22;6792;57.698;11.946;2022-12-11T05:45:10;3.70;49.50
13440;DHT22;6792;57.698;11.946;2022-12-11T05:47:39;3.70;49.40
13440;DHT22;6792;57.698;11.946;2022-12-11T05:50:10;3.70;49.40
13440;DHT22;6792;57.698;11.946;2022-12-11T05:52:39;3.70;49.30
13440;DHT22;6792;57.698;11.946;2022-12-11T05:55:09;3.70;49.20
13440;DHT22;6792;57.698;11.946;2022-12-11T05:57:38;3.70;48.70
13440;DHT22;6792;57.698;11.946;2022-12-11T06:00:10;3.70;49.30
13440;DHT22;6792;57.698;11.946;2022-12-11T06:02:40;3.60;49.30
13440;DHT22;6792;57.698;11.946;2022-12-11T06:05:09;3.60;48.80
13440;DHT22;6792;57.698;11.946;2022-12-11T06:07:39;3.70;49.40
13440;DHT22;6792;57.698;11.946;2022-12-11T06:10:10;3.70;49.50
13440;DHT22;6792;57.698;11.946;2022-12-11T06:12:42;3.70;49.50
13440;DHT22;6792;57.698;11.946;2022-12-11T06:15:12;3.70;49.50
13440;DHT22;6792;57.698;11.946;2022-12-11T06:17:41;3.80;49.50
13440;DHT22;6792;57.698;11.946;2022-12-11T06:20:11;3.80;49.50
13440;DHT22;6792;57.698;11.946;2022-12-11T06:22:40;3.70;48.80
13440;DHT22;6792;57.698;11.946;2022-12-11T06:25:10;3.80;49.40
13440;DHT22;6792;57.698;11.946;2022-12-11T06:30:25;3.70;48.70
13440;DHT22;6792;57.698;11.946;2022-12-11T06:32:56;3.70;49.20
13440;DHT22;6792;57.698;11.946;2022-12-11T06:35:25;3.70;49.20
13440;DHT22;6792;57.698;11.946;2022-12-11T06:37:55;3.60;49.10
13440;DHT22;6792;57.698;11.946;2022-12-11T06:40:24;3.60;49.10
13440;DHT22;6792;57.698;11.946;2022-12-11T06:42:54;3.60;49.10
13440;DHT22;6792;57.698;11.946;2022-12-11T06:45:23;3.50;49.20
13440;DHT22;6792;57.698;11.946;2022-12-11T06:47:52;3.50;49.20
13440;DHT22;6792;57.698;11.946;2022-12-11T06:50:22;3.60;49.30
13440;DHT22;6792;57.698;11.946;2022-12-11T06:52:52;3.50;49.20
13440;DHT22;6792;57.698;11.946;2022-12-11T06:55:21;3.50;49.30
13440;DHT22;6792;57.698;11.946;2022-12-11T06:57:51;3.50;49.20
13440;DHT22;6792;57.698;11.946;2022-12-11T07:00:21;3.50;49.20
13440;DHT22;6792;57.698;11.946;2022-12-11T07:02:51;3.50;49.20
13440;DHT22;6792;57.698;11.946;2022-12-11T07:05:20;3.50;49.30
13440;DHT22;6792;57.698;11.946;2022-12-11T07:07:52;3.50;49.20
13440;DHT22;6792;57.698;11.946;2022-12-11T07:10:22;3.50;49.20
13440;DHT22;6792;57.698;11.946;2022-12-11T07:12:53;3.50;49.30
13440;DHT22;6792;57.698;11.946;2022-12-11T07:15:22;3.50;49.40
13440;DHT22;6792;57.698;11.946;2022-12-11T07:17:51;3.50;49.30
13440;DHT22;6792;57.698;11.946;2022-12-11T07:20:21;3.50;49.30
13440;DHT22;6792;57.698;11.946;2022-12-11T07:22:50;3.50;49.20
13440;DHT22;6792;57.698;11.946;2022-12-11T07:25:19;3.50;49.20
13440;DHT22;6792;57.698;11.946;2022-12-11T07:27:49;3.50;49.30
13440;DHT22;6792;57.698;11.946;2022-12-11T07:30:18;3.50;49.30
13440;DHT22;6792;57.698;11.946;2022-12-11T07:32:47;3.50;49.30
13440;DHT22;6792;57.698;11.946;2022-12-11T07:35:17;3.40;49.30
13440;DHT22;6792;57.698;11.946;2022-12-11T07:37:46;3.50;49.40
13440;DHT22;6792;57.698;11.946;2022-12-11T07:40:16;3.50;49.30
13440;DHT22;6792;57.698;11.946;2022-12-11T07:42:45;3.50;49.30
13440;DHT22;6792;57.698;11.946;2022-12-11T07:45:16;3.40;49.30
13440;DHT22;6792;57.698;11.946;2022-12-11T07:47:45;3.40;49.20
13440;DHT22;6792;57.698;11.946;2022-12-11T07:50:14;3.30;49.20
13440;DHT22;6792;57.698;11.946;2022-12-11T07:52:44;3.30;49.30
13440;DHT22;6792;57.698;11.946;2022-12-11T07:55:14;3.30;49.50
13440;DHT22;6792;57.698;11.946;2022-12-11T07:57:43;3.30;49.90
13440;DHT22;6792;57.698;11.946;2022-12-11T08:00:14;3.30;50.30
13440;DHT22;6792;57.698;11.946;2022-12-11T08:02:46;3.30;49.70
13440;DHT22;6792;57.698;11.946;2022-12-11T08:05:15;3.40;49.50
13440;DHT22;6792;57.698;11.946;2022-12-11T08:07:45;3.40;49.50
13440;DHT22;6792;57.698;11.946;2022-12-11T08:10:14;3.30;49.30
13440;DHT22;6792;57.698;11.946;2022-12-11T08:12:43;3.30;49.30
13440;DHT22;6792;57.698;11.946;2022-12-11T08:15:12;3.30;49.30
13440;DHT22;6792;57.698;11.946;2022-12-11T08:17:41;3.30;49.30
13440;DHT22;6792;57.698;11.946;2022-12-11T08:20:11;3.30;49.40
13440;DHT22;6792;57.698;11.946;2022-12-11T08:22:40;3.20;48.80
13440;DHT22;6792;57.698;11.946;2022-12-11T08:25:09;3.30;49.40
13440;DHT22;6792;57.698;11.946;2022-12-11T08:27:39;3.30;49.40
13440;DHT22;6792;57.698;11.946;2022-12-11T08:30:10;3.30;49.40
13440;DHT22;6792;57.698;11.946;2022-12-11T08:32:39;3.30;49.40
13440;DHT22;6792;57.698;11.946;2022-12-11T08:35:09;3.30;49.40
13440;DHT22;6792;57.698;11.946;2022-12-11T08:37:38;3.20;49.30
13440;DHT22;6792;57.698;11.946;2022-12-11T08:40:10;3.20;49.40
13440;DHT22;6792;57.698;11.946;2022-12-11T08:42:40;3.20;49.40
13440;DHT22;6792;57.698;11.946;2022-12-11T08:45:10;3.20;49.40
13440;DHT22;6792;57.698;11.946;2022-12-11T08:47:39;3.20;49.50
13440;DHT22;6792;57.698;11.946;2022-12-11T08:50:09;3.30;49.60
13440;DHT22;6792;57.698;11.946;2022-12-11T08:52:39;3.30;49.60
13440;DHT22;6792;57.698;11.946;2022-12-11T08:55:09;3.30;49.60
13440;DHT22;6792;57.698;11.946;2022-12-11T08:57:38;3.40;49.70
13440;DHT22;6792;57.698;11.946;2022-12-11T09:00:12;3.40;49.60
13440;DHT22;6792;57.698;11.946;2022-12-11T09:02:42;3.40;49.10
13440;DHT22;6792;57.698;11.946;2022-12-11T09:05:12;3.40;49.60
13440;DHT22;6792;57.698;11.946;2022-12-11T09:07:42;3.40;49.60
13440;DHT22;6792;57.698;11.946;2022-12-11T09:10:12;3.40;49.50
13440;DHT22;6792;57.698;11.946;2022-12-11T09:12:42;3.50;49.70
13440;DHT22;6792;57.698;11.946;2022-12-11T09:15:12;3.40;49.50
13440;DHT22;6792;57.698;11.946;2022-12-11T09:17:41;3.40;49.60
13440;DHT22;6792;57.698;11.946;2022-12-11T09:20:11;3.40;49.50
13440;DHT22;6792;57.698;11.946;2022-12-11T09:22:40;3.40;49.50
13440;DHT22;6792;57.698;11.946;2022-12-11T09:25:10;3.50;49.60
13440;DHT22;6792;57.698;11.946;2022-12-11T09:27:39;3.50;49.60
13440;DHT22;6792;57.698;11.946;2022-12-11T09:30:12;3.50;49.60
13440;DHT22;6792;57.698;11.946;2022-12-11T09:32:43;3.50;49.00
13440;DHT22;6792;57.698;11.946;2022-12-11T09:35:12;3.60;49.70
13440;DHT22;6792;57.698;11.946;2022-12-11T09:37:44;3.60;49.70
13440;DHT22;6792;57.698;11.946;2022-12-11T09:40:15;3.60;49.60
13440;DHT22;6792;57.698;11.946;2022-12-11T09:42:52;3.60;49.60
13440;DHT22;6792;57.698;11.946;2022-12-11T09:45:21;3.70;49.60
13440;DHT22;6792;57.698;11.946;2022-12-11T09:47:52;3.60;49.60
13440;DHT22;6792;57.698;11.946;2022-12-11T09:50:27;3.70;49.60
13440;DHT22;6792;57.698;11.946;2022-12-11T09:53:04;3.70;49.70
13440;DHT22;6792;57.698;11.946;2022-12-11T09:55:38;3.70;49.70
13440;DHT22;6792;57.698;11.946;2022-12-11T09:58:12;3.70;49.60
13440;DHT22;6792;57.698;11.946;2022-12-11T10:00:46;3.70;49.10
13440;DHT22;6792;57.698;11.946;2022-12-11T10:03:32;3.70;49.20
13440;DHT22;6792;57.698;11.946;2022-12-11T10:06:09;3.70;49.20
13440;DHT22;6792;57.698;11.946;2022-12-11T10:08:42;3.70;49.20
13440;DHT22;6792;57.698;11.946;2022-12-11T10:11:35;3.70;49.70
13440;DHT22;6792;57.698;11.946;2022-12-11T10:14:11;3.60;49.00
13440;DHT22;6792;57.698;11.946;2022-12-11T10:16:42;3.50;49.10
13440;DHT22;6792;57.698;11.946;2022-12-11T10:19:16;3.50;49.30
13440;DHT22;6792;57.698;11.946;2022-12-11T10:21:46;3.60;49.90
13440;DHT22;6792;57.698;11.946;2022-12-11T10:24:20;3.60;49.80
13440;DHT22;6792;57.698;11.946;2022-12-11T10:26:57;3.70;49.80
13440;DHT22;6792;57.698;11.946;2022-12-11T10:29:28;3.70;50.40
13440;DHT22;6792;57.698;11.946;2022-12-11T10:31:58;3.70;49.70
13440;DHT22;6792;57.698;11.946;2022-12-11T10:34:32;3.70;49.70
13440;DHT22;6792;57.698;11.946;2022-12-11T10:37:07;3.70;49.10
13440;DHT22;6792;57.698;11.946;2022-12-11T10:39:37;3.70;49.70
13440;DHT22;6792;57.698;11.946;2022-12-11T10:42:13;3.80;49.10
13440;DHT22;6792;57.698;11.946;2022-12-11T10:44:54;3.70;49.70
13440;DHT22;6792;57.698;11.946;2022-12-11T10:47:23;3.70;49.80
13440;DHT22;6792;57.698;11.946;2022-12-11T10:49:57;3.80;49.20
13440;DHT22;6792;57.698;11.946;2022-12-11T10:52:28;3.80;49.70
13440;DHT22;6792;57.698;11.946;2022-12-11T10:55:01;3.80;49.70
13440;DHT22;6792;57.698;11.946;2022-12-11T10:57:37;3.80;49.20
13440;DHT22;6792;57.698;11.946;2022-12-11T11:00:25;3.80;49.70
13440;DHT22;6792;57.698;11.946;2022-12-11T11:02:57;3.80;49.70
13440;DHT22;6792;57.698;11.946;2022-12-11T11:05:30;3.90;49.70
13440;DHT22;6792;57.698;11.946;2022-12-11T11:08:14;3.90;49.60
13440;DHT22;6792;57.698;11.946;2022-12-11T11:10:57;3.90;49.60
13440;DHT22;6792;57.698;11.946;2022-12-11T11:13:28;3.80;49.10
13440;DHT22;6792;57.698;11.946;2022-12-11T11:16:03;3.90;49.80
13440;DHT22;6792;57.698;11.946;2022-12-11T11:18:33;3.90;49.70
13440;DHT22;6792;57.698;11.946;2022-12-11T11:21:04;3.90;49.70
13440;DHT22;6792;57.698;11.946;2022-12-11T11:23:34;3.90;49.70
13440;DHT22;6792;57.698;11.946;2022-12-11T11:26:08;3.90;49.70
13440;DHT22;6792;57.698;11.946;2022-12-11T11:28:41;4.00;49.70
13440;DHT22;6792;57.698;11.946;2022-12-11T11:31:16;4.00;49.60
13440;DHT22;6792;57.698;11.946;2022-12-11T11:33:50;4.00;49.10
13440;DHT22;6792;57.698;11.946;2022-12-11T11:36:21;4.10;49.70
13440;DHT22;6792;57.698;11.946;2022-12-11T11:39:02;4.00;49.60
13440;DHT22;6792;57.698;11.946;2022-12-11T11:41:36;4.00;49.20
13440;DHT22;6792;57.698;11.946;2022-12-11T11:44:08;4.10;49.70
13440;DHT22;6792;57.698;11.946;2022-12-11T11:46:45;4.00;49.10
13440;DHT22;6792;57.698;11.946;2022-12-11T11:49:19;4.00;49.10
13440;DHT22;6792;57.698;11.946;2022-12-11T11:51:52;4.10;49.80
13440;DHT22;6792;57.698;11.946;2022-12-11T11:54:29;4.10;49.20
13440;DHT22;6792;57.698;11.946;2022-12-11T11:57:00;4.10;49.70
13440;DHT22;6792;57.698;11.946;2022-12-11T11:59:34;4.20;49.80
13440;DHT22;6792;57.698;11.946;2022-12-11T12:02:13;4.20;49.20
13440;DHT22;6792;57.698;11.946;2022-12-11T12:04:49;4.20;49.10
13440;DHT22;6792;57.698;11.946;2022-12-11T12:07:28;4.20;49.60
13440;DHT22;6792;57.698;11.946;2022-12-11T12:10:01;4.20;49.10
13440;DHT22;6792;57.698;11.946;2022-12-11T12:12:36;4.20;49.60
13440;DHT22;6792;57.698;11.946;2022-12-11T12:15:21;4.30;49.10
13440;DHT22;6792;57.698;11.946;2022-12-11T12:17:55;4.20;49.10
13440;DHT22;6792;57.698;11.946;2022-12-11T12:20:29;4.20;49.60
13440;DHT22;6792;57.698;11.946;2022-12-11T12:23:13;4.30;49.10
13440;DHT22;6792;57.698;11.946;2022-12-11T12:25:44;4.30;49.20
13440;DHT22;6792;57.698;11.946;2022-12-11T12:28:20;4.30;49.70
13440;DHT22;6792;57.698;11.946;2022-12-11T12:30:56;4.30;49.70
13440;DHT22;6792;57.698;11.946;2022-12-11T12:33:32;4.30;49.70
13440;DHT22;6792;57.698;11.946;2022-12-11T12:36:14;4.30;49.20
13440;DHT22;6792;57.698;11.946;2022-12-11T12:38:45;4.40;49.20
13440;DHT22;6792;57.698;11.946;2022-12-11T12:41:17;4.40;49.80
13440;DHT22;6792;57.698;11.946;2022-12-11T12:43:54;4.40;49.80
13440;DHT22;6792;57.698;11.946;2022-12-11T12:46:29;4.40;49.80
13440;DHT22;6792;57.698;11.946;2022-12-11T12:49:01;4.50;49.70
13440;DHT22;6792;57.698;11.946;2022-12-11T12:51:34;4.50;49.80
13440;DHT22;6792;57.698;11.946;2022-12-11T12:54:06;4.50;49.70
13440;DHT22;6792;57.698;11.946;2022-12-11T12:56:36;4.60;49.80
13440;DHT22;6792;57.698;11.946;2022-12-11T12:59:17;4.60;49.70
13440;DHT22;6792;57.698;11.946;2022-12-11T13:01:49;4.60;49.80
13440;DHT22;6792;57.698;11.946;2022-12-11T13:04:38;4.60;49.10
13440;DHT22;6792;57.698;11.946;2022-12-11T13:07:16;4.70;49.80
13440;DHT22;6792;57.698;11.946;2022-12-11T13:10:02;4.70;49.70
13440;DHT22;6792;57.698;11.946;2022-12-11T13:12:40;4.70;49.70
13440;DHT22;6792;57.698;11.946;2022-12-11T13:15:28;4.70;49.30
13440;DHT22;6792;57.698;11.946;2022-12-11T13:18:00;4.70;49.20
13440;DHT22;6792;57.698;11.946;2022-12-11T13:20:31;4.70;49.20
13440;DHT22;6792;57.698;11.946;2022-12-11T13:23:25;4.70;49.70
13440;DHT22;6792;57.698;11.946;2022-12-11T13:25:52;4.70;49.10
13440;DHT22;6792;57.698;11.946;2022-12-11T13:28:32;4.70;49.80
13440;DHT22;6792;57.698;11.946;2022-12-11T13:33:41;4.80;49.10
13440;DHT22;6792;57.698;11.946;2022-12-11T13:36:26;4.80;49.10
13440;DHT22;6792;57.698;11.946;2022-12-11T13:39:04;4.80;49.30
13440;DHT22;6792;57.698;11.946;2022-12-11T13:41:36;4.80;50.30
13440;DHT22;6792;57.698;11.946;2022-12-11T13:44:07;4.80;49.10
13440;DHT22;6792;57.698;11.946;2022-12-11T13:46:39;4.80;49.70
13440;DHT22;6792;57.698;11.946;2022-12-11T13:49:16;4.90;49.80
13440;DHT22;6792;57.698;11.946;2022-12-11T13:51:53;4.90;49.50
13440;DHT22;6792;57.698;11.946;2022-12-11T13:54:25;4.80;49.40
13440;DHT22;6792;57.698;11.946;2022-12-11T13:57:01;4.80;49.50
13440;DHT22;6792;57.698;11.946;2022-12-11T13:59:36;4.70;49.40
13440;DHT22;6792;57.698;11.946;2022-12-11T14:02:11;4.70;48.90
13440;DHT22;6792;57.698;11.946;2022-12-11T14:04:41;4.70;49.50
13440;DHT22;6792;57.698;11.946;2022-12-11T14:07:11;4.70;49.50
13440;DHT22;6792;57.698;11.946;2022-12-11T14:09:42;4.70;49.50
13440;DHT22;6792;57.698;11.946;2022-12-11T14:12:17;4.70;49.50
13440;DHT22;6792;57.698;11.946;2022-12-11T14:14:52;4.70;49.50
13440;DHT22;6792;57.698;11.946;2022-12-11T14:17:29;4.70;49.40
13440;DHT22;6792;57.698;11.946;2022-12-11T14:20:02;4.70;49.30
13440;DHT22;6792;57.698;11.946;2022-12-11T14:22:35;4.70;49.30
13440;DHT22;6792;57.698;11.946;2022-12-11T14:25:19;4.70;49.40
13440;DHT22;6792;57.698;11.946;2022-12-11T14:27:53;4.60;48.80
13440;DHT22;6792;57.698;11.946;2022-12-11T14:30:24;4.70;49.40
13440;DHT22;6792;57.698;11.946;2022-12-11T14:32:57;4.70;49.30
13440;DHT22;6792;57.698;11.946;2022-12-11T14:35:30;4.50;48.50
13440;DHT22;6792;57.698;11.946;2022-12-11T14:38:03;4.40;49.20
13440;DHT22;6792;57.698;11.946;2022-12-11T14:40:34;4.30;48.80
13440;DHT22;6792;57.698;11.946;2022-12-11T14:43:10;4.30;49.90
13440;DHT22;6792;57.698;11.946;2022-12-11T14:45:41;4.20;48.80
13440;DHT22;6792;57.698;11.946;2022-12-11T14:48:15;4.20;49.00
13440;DHT22;6792;57.698;11.946;2022-12-11T14:50:46;4.20;49.50
13440;DHT22;6792;57.698;11.946;2022-12-11T14:53:19;4.20;49.50
13440;DHT22;6792;57.698;11.946;2022-12-11T14:55:50;4.20;49.30
13440;DHT22;6792;57.698;11.946;2022-12-11T14:58:21;4.20;49.30
13440;DHT22;6792;57.698;11.946;2022-12-11T15:01:00;4.30;49.50
13440;DHT22;6792;57.698;11.946;2022-12-11T15:03:33;4.30;49.40
13440;DHT22;6792;57.698;11.946;2022-12-11T15:06:20;4.30;49.40
13440;DHT22;6792;57.698;11.946;2022-12-11T15:08:49;4.40;49.50
13440;DHT22;6792;57.698;11.946;2022-12-11T15:11:18;4.40;49.30
13440;DHT22;6792;57.698;11.946;2022-12-11T15:13:51;4.40;48.70
13440;DHT22;6792;57.698;11.946;2022-12-11T15:16:25;4.50;49.30
13440;DHT22;6792;57.698;11.946;2022-12-11T15:18:57;4.50;49.30
13440;DHT22;6792;57.698;11.946;2022-12-11T15:21:30;4.40;49.10
13440;DHT22;6792;57.698;11.946;2022-12-11T15:24:19;4.30;48.50
13440;DHT22;6792;57.698;11.946;2022-12-11T15:26:43;4.30;48.60
13440;DHT22;6792;57.698;11.946;2022-12-11T15:29:26;4.20;48.60
13440;DHT22;6792;57.698;11.946;2022-12-11T15:34:54;4.20;48.70
13440;DHT22;6792;57.698;11.946;2022-12-11T15:37:28;4.20;49.20
13440;DHT22;6792;57.698;11.946;2022-12-11T15:39:59;4.20;49.20
13440;DHT22;6792;57.698;11.946;2022-12-11T15:42:31;4.20;48.60
13440;DHT22;6792;57.698;11.946;2022-12-11T15:45:06;4.20;48.60
13440;DHT22;6792;57.698;11.946;2022-12-11T15:47:38;4.20;48.80
13440;DHT22;6792;57.698;11.946;2022-12-11T15:50:17;4.20;49.20
13440;DHT22;6792;57.698;11.946;2022-12-11T15:55:21;4.20;48.70
13440;DHT22;6792;57.698;11.946;2022-12-11T15:57:54;4.20;48.60
13440;DHT22;6792;57.698;11.946;2022-12-11T16:00:24;4.20;48.60
13440;DHT22;6792;57.698;11.946;2022-12-11T16:02:55;4.10;48.60
13440;DHT22;6792;57.698;11.946;2022-12-11T16:05:25;4.10;48.70
13440;DHT22;6792;57.698;11.946;2022-12-11T16:07:55;4.10;48.70
13440;DHT22;6792;57.698;11.946;2022-12-11T16:10:26;4.10;49.20
13440;DHT22;6792;57.698;11.946;2022-12-11T16:12:57;4.20;49.30
13440;DHT22;6792;57.698;11.946;2022-12-11T16:15:27;4.20;49.20
13440;DHT22;6792;57.698;11.946;2022-12-11T16:18:02;4.20;48.70
13440;DHT22;6792;57.698;11.946;2022-12-11T16:20:32;4.30;49.30
13440;DHT22;6792;57.698;11.946;2022-12-11T16:23:02;4.30;49.30
13440;DHT22;6792;57.698;11.946;2022-12-11T16:25:31;4.30;49.30
13440;DHT22;6792;57.698;11.946;2022-12-11T16:28:04;4.30;48.80
13440;DHT22;6792;57.698;11.946;2022-12-11T16:30:35;4.40;48.80
13440;DHT22;6792;57.698;11.946;2022-12-11T16:33:14;4.40;48.70